Taiheimaru — JM6135 — position and weather

sailwx.info

Track history (hours):
 
Tides and Currents Weather Stations Pressure Air Temp Water Temp Dewpoint Dewpoint Depression Visibility Wind Speed Wind Dir Waves Ship Positions

Taiheimaru

Last reported at 2015-Jul-07 23:33 UTC. Time now 2015-Jul-08 00:03 UTC.
Position N 34°39' E 135°15'.

Length 78 m.

Type: Cargo ship. MMSI: 431400082.

Date/timePositionNaut miles runAvg speedWind from/ knotsBaromVisibWave heightAir tempDewpointWater temp
2015-Jul-07 23:33N 34°39' E 135°15'0 0.4
2015-Jul-07 22:21N 34°38' E 135°15'0 0.0
2015-Jul-07 21:27N 34°38' E 135°15'0 0.0
2015-Jul-07 20:33N 34°38' E 135°15'0 0.0
2015-Jul-07 19:21N 34°38' E 135°15'0 0.0
2015-Jul-07 18:29N 34°38' E 135°15'0 0.0
2015-Jul-07 17:29N 34°38' E 135°15'0 0.0
2015-Jul-07 16:23N 34°38' E 135°15'5 6.3
2015-Jul-07 15:33N 34°36' E 135°09'10 0.3
2015-Jul-06 09:14N 34°37' E 134°57'5 7.7
2015-Jul-06 08:33N 34°36' E 135°03'10 9.9
2015-Jul-06 07:33N 34°38' E 135°15'2 2.5
2015-Jul-06 06:33N 34°41' E 135°16'1 0.6
2015-Jul-06 05:30N 34°41' E 135°17'1 0.9
2015-Jul-06 04:32N 34°41' E 135°16'2 2.2
2015-Jul-06 03:32N 34°40' E 135°13'0 0.0
2015-Jul-06 02:33N 34°40' E 135°13'0 0.0
2015-Jul-06 01:31N 34°40' E 135°13'2 1.9
2015-Jul-06 00:33N 34°39' E 135°15'0 0.0
2015-Jul-05 23:28N 34°39' E 135°15'3 2.7
2015-Jul-05 22:29N 34°41' E 135°13'0 0.0
2015-Jul-05 21:23N 34°41' E 135°13'0 0.0
2015-Jul-05 20:32N 34°41' E 135°13'0 0.0
2015-Jul-05 19:30N 34°41' E 135°13'0 0.0
2015-Jul-05 18:30N 34°41' E 135°13'0 0.0
2015-Jul-05 17:33N 34°41' E 135°13'0 0.0
2015-Jul-05 16:33N 34°41' E 135°13'0 0.0
2015-Jul-05 15:32N 34°41' E 135°13'0 0.0
2015-Jul-05 14:32N 34°41' E 135°13'0 0.0
2015-Jul-05 13:31N 34°41' E 135°13'0 0.0
2015-Jul-05 12:33N 34°41' E 135°13'0 0.0
2015-Jul-05 11:32N 34°41' E 135°13'0 0.0
2015-Jul-05 10:33N 34°41' E 135°13'0 0.0
2015-Jul-05 09:28N 34°41' E 135°13'0 0.0
2015-Jul-05 08:32N 34°41' E 135°13'0 0.0
2015-Jul-05 07:32N 34°41' E 135°13'0 0.0
2015-Jul-05 06:33N 34°41' E 135°13'0 0.0
2015-Jul-05 05:33N 34°41' E 135°13'0 0.0
2015-Jul-05 04:28N 34°41' E 135°13'0 0.0
2015-Jul-05 03:30N 34°41' E 135°13'0 0.0
2015-Jul-05 02:31N 34°41' E 135°13'0 0.0
2015-Jul-05 01:25N 34°41' E 135°13'0 0.0
2015-Jul-05 00:31N 34°41' E 135°13'0 0.0
2015-Jul-04 23:31N 34°41' E 135°13'0 0.0
2015-Jul-04 22:31N 34°41' E 135°13'0 0.0
2015-Jul-04 21:31N 34°41' E 135°13'0 0.0
2015-Jul-04 20:31N 34°41' E 135°13'0 0.0
2015-Jul-04 19:31N 34°41' E 135°13'0 0.0
2015-Jul-04 18:31N 34°41' E 135°13'0 0.0
2015-Jul-04 17:31N 34°41' E 135°13'0 0.0
2015-Jul-04 16:31N 34°41' E 135°13'1 1.5
2015-Jul-04 15:33N 34°40' E 135°14'10 9.9
2015-Jul-04 14:33N 34°35' E 135°04'2 0.1
2015-Jul-03 07:16N 34°36' E 135°03'6 8.2
2015-Jul-03 06:33N 34°37' E 135°10'5 4.8
2015-Jul-03 05:33N 34°39' E 135°15'0 0.4
2015-Jul-03 04:33N 34°40' E 135°15'1 0.5
2015-Jul-03 03:31N 34°40' E 135°14'1 1.3
2015-Jul-03 02:33N 34°40' E 135°15'1 0.5
2015-Jul-03 01:33N 34°40' E 135°16'0 0.0
2015-Jul-03 00:29N 34°40' E 135°16'2 1.7
2015-Jul-02 23:31N 34°39' E 135°15'1 0.8
2015-Jul-02 22:33N 34°38' E 135°15'0 0.1
2015-Jul-02 21:33N 34°38' E 135°15'0 0.0
2015-Jul-02 20:05N 34°38' E 135°15'0 0.0
2015-Jul-02 19:17N 34°38' E 135°15'0 0.0
2015-Jul-02 18:15N 34°38' E 135°15'5 6.6
2015-Jul-02 17:33N 34°36' E 135°10'6 0.2
2015-Jul-01 07:33N 34°36' E 135°04'18 7.5
2015-Jul-01 05:11N 34°38' E 135°25'2 1.0
2015-Jul-01 03:24N 34°38' E 135°23'6 6.7
2015-Jul-01 02:30N 34°41' E 135°17'0 0.0
2015-Jul-01 01:25N 34°41' E 135°17'1 0.7
2015-Jul-01 00:33N 34°40' E 135°16'2 1.5
2015-Jun-30 23:23N 34°39' E 135°15'1 0.8
2015-Jun-30 22:32N 34°38' E 135°15'0 0.0
2015-Jun-30 21:32N 34°38' E 135°15'0 0.0
2015-Jun-30 20:29N 34°38' E 135°15'0 0.0
2015-Jun-30 19:17N 34°38' E 135°15'0 0.0
2015-Jun-30 18:23N 34°38' E 135°15'0 0.0
2015-Jun-30 17:26N 34°38' E 135°15'5 5.4
2015-Jun-30 16:34N 34°36' E 135°10'7 0.2
2015-Jun-29 07:32N 34°37' E 135°01'1211.0
2015-Jun-29 06:29N 34°39' E 135°15'2 2.4
2015-Jun-29 05:31N 34°41' E 135°17'3 2.9
2015-Jun-29 04:30N 34°40' E 135°13'0 0.0
2015-Jun-29 03:12N 34°40' E 135°13'0 0.0
2015-Jun-29 02:32N 34°40' E 135°13'2 1.4
2015-Jun-29 01:26N 34°39' E 135°15'1 1.4
2015-Jun-29 00:28N 34°39' E 135°16'7 6.5
2015-Jun-28 23:23N 34°38' E 135°25'1 1.8
2015-Jun-28 22:33N 34°37' E 135°23'0 0.0
2015-Jun-28 21:27N 34°37' E 135°23'0 0.0
2015-Jun-28 18:27N 34°37' E 135°23'0 0.0
2015-Jun-28 17:33N 34°37' E 135°23'0 0.0
2015-Jun-28 16:33N 34°37' E 135°23'3 2.9
2015-Jun-28 15:31N 34°36' E 135°20'1111.5
2015-Jun-28 14:32N 34°35' E 135°06'  
Track history (hours):
 
Tides and Currents Weather Stations Pressure Air Temp Water Temp Dewpoint Dewpoint Depression Visibility Wind Speed Wind Dir Waves Ship Positions

Taiheimaru

Last reported at 2015-Jul-07 23:33 UTC. Time now 2015-Jul-08 00:03 UTC.
Position N 34°39' E 135°15'.

Length 78 m.

Type: Cargo ship. MMSI: 431400082.

Date/timePositionNaut miles runAvg speedWind from/ knotsBaromVisibWave heightAir tempDewpointWater temp
2015-Jul-07 23:33N 34°39' E 135°15'0 0.4
2015-Jul-07 22:21N 34°38' E 135°15'0 0.0
2015-Jul-07 21:27N 34°38' E 135°15'0 0.0
2015-Jul-07 20:33N 34°38' E 135°15'0 0.0
2015-Jul-07 19:21N 34°38' E 135°15'0 0.0
2015-Jul-07 18:29N 34°38' E 135°15'0 0.0
2015-Jul-07 17:29N 34°38' E 135°15'0 0.0
2015-Jul-07 16:23N 34°38' E 135°15'5 6.3
2015-Jul-07 15:33N 34°36' E 135°09'10 0.3
2015-Jul-06 09:14N 34°37' E 134°57'5 7.7
2015-Jul-06 08:33N 34°36' E 135°03'10 9.9
2015-Jul-06 07:33N 34°38' E 135°15'2 2.5
2015-Jul-06 06:33N 34°41' E 135°16'1 0.6
2015-Jul-06 05:30N 34°41' E 135°17'1 0.9
2015-Jul-06 04:32N 34°41' E 135°16'2 2.2
2015-Jul-06 03:32N 34°40' E 135°13'0 0.0
2015-Jul-06 02:33N 34°40' E 135°13'0 0.0
2015-Jul-06 01:31N 34°40' E 135°13'2 1.9
2015-Jul-06 00:33N 34°39' E 135°15'0 0.0
2015-Jul-05 23:28N 34°39' E 135°15'3 2.7
2015-Jul-05 22:29N 34°41' E 135°13'0 0.0
2015-Jul-05 21:23N 34°41' E 135°13'0 0.0
2015-Jul-05 20:32N 34°41' E 135°13'0 0.0
2015-Jul-05 19:30N 34°41' E 135°13'0 0.0
2015-Jul-05 18:30N 34°41' E 135°13'0 0.0
2015-Jul-05 17:33N 34°41' E 135°13'0 0.0
2015-Jul-05 16:33N 34°41' E 135°13'0 0.0
2015-Jul-05 15:32N 34°41' E 135°13'0 0.0
2015-Jul-05 14:32N 34°41' E 135°13'0 0.0
2015-Jul-05 13:31N 34°41' E 135°13'0 0.0
2015-Jul-05 12:33N 34°41' E 135°13'0 0.0
2015-Jul-05 11:32N 34°41' E 135°13'0 0.0
2015-Jul-05 10:33N 34°41' E 135°13'0 0.0
2015-Jul-05 09:28N 34°41' E 135°13'0 0.0
2015-Jul-05 08:32N 34°41' E 135°13'0 0.0
2015-Jul-05 07:32N 34°41' E 135°13'0 0.0
2015-Jul-05 06:33N 34°41' E 135°13'0 0.0
2015-Jul-05 05:33N 34°41' E 135°13'0 0.0
2015-Jul-05 04:28N 34°41' E 135°13'0 0.0
2015-Jul-05 03:30N 34°41' E 135°13'0 0.0
2015-Jul-05 02:31N 34°41' E 135°13'0 0.0
2015-Jul-05 01:25N 34°41' E 135°13'0 0.0
2015-Jul-05 00:31N 34°41' E 135°13'0 0.0
2015-Jul-04 23:31N 34°41' E 135°13'0 0.0
2015-Jul-04 22:31N 34°41' E 135°13'0 0.0
2015-Jul-04 21:31N 34°41' E 135°13'0 0.0
2015-Jul-04 20:31N 34°41' E 135°13'0 0.0
2015-Jul-04 19:31N 34°41' E 135°13'0 0.0
2015-Jul-04 18:31N 34°41' E 135°13'0 0.0
2015-Jul-04 17:31N 34°41' E 135°13'0 0.0
2015-Jul-04 16:31N 34°41' E 135°13'1 1.5
2015-Jul-04 15:33N 34°40' E 135°14'10 9.9
2015-Jul-04 14:33N 34°35' E 135°04'2 0.1
2015-Jul-03 07:16N 34°36' E 135°03'6 8.2
2015-Jul-03 06:33N 34°37' E 135°10'5 4.8
2015-Jul-03 05:33N 34°39' E 135°15'0 0.4
2015-Jul-03 04:33N 34°40' E 135°15'1 0.5
2015-Jul-03 03:31N 34°40' E 135°14'1 1.3
2015-Jul-03 02:33N 34°40' E 135°15'1 0.5
2015-Jul-03 01:33N 34°40' E 135°16'0 0.0
2015-Jul-03 00:29N 34°40' E 135°16'2 1.7
2015-Jul-02 23:31N 34°39' E 135°15'1 0.8
2015-Jul-02 22:33N 34°38' E 135°15'0 0.1
2015-Jul-02 21:33N 34°38' E 135°15'0 0.0
2015-Jul-02 20:05N 34°38' E 135°15'0 0.0
2015-Jul-02 19:17N 34°38' E 135°15'0 0.0
2015-Jul-02 18:15N 34°38' E 135°15'5 6.6
2015-Jul-02 17:33N 34°36' E 135°10'6 0.2
2015-Jul-01 07:33N 34°36' E 135°04'18 7.5
2015-Jul-01 05:11N 34°38' E 135°25'2 1.0
2015-Jul-01 03:24N 34°38' E 135°23'6 6.7
2015-Jul-01 02:30N 34°41' E 135°17'0 0.0
2015-Jul-01 01:25N 34°41' E 135°17'1 0.7
2015-Jul-01 00:33N 34°40' E 135°16'2 1.5
2015-Jun-30 23:23N 34°39' E 135°15'1 0.8
2015-Jun-30 22:32N 34°38' E 135°15'0 0.0
2015-Jun-30 21:32N 34°38' E 135°15'0 0.0
2015-Jun-30 20:29N 34°38' E 135°15'0 0.0
2015-Jun-30 19:17N 34°38' E 135°15'0 0.0
2015-Jun-30 18:23N 34°38' E 135°15'0 0.0
2015-Jun-30 17:26N 34°38' E 135°15'5 5.4
2015-Jun-30 16:34N 34°36' E 135°10'7 0.2
2015-Jun-29 07:32N 34°37' E 135°01'1211.0
2015-Jun-29 06:29N 34°39' E 135°15'2 2.4
2015-Jun-29 05:31N 34°41' E 135°17'3 2.9
2015-Jun-29 04:30N 34°40' E 135°13'0 0.0
2015-Jun-29 03:12N 34°40' E 135°13'0 0.0
2015-Jun-29 02:32N 34°40' E 135°13'2 1.4
2015-Jun-29 01:26N 34°39' E 135°15'1 1.4
2015-Jun-29 00:28N 34°39' E 135°16'7 6.5
2015-Jun-28 23:23N 34°38' E 135°25'1 1.8
2015-Jun-28 22:33N 34°37' E 135°23'0 0.0
2015-Jun-28 21:27N 34°37' E 135°23'0 0.0
2015-Jun-28 18:27N 34°37' E 135°23'0 0.0
2015-Jun-28 17:33N 34°37' E 135°23'0 0.0
2015-Jun-28 16:33N 34°37' E 135°23'3 2.9
2015-Jun-28 15:31N 34°36' E 135°20'1111.5
2015-Jun-28 14:32N 34°35' E 135°06'  

Dump ship's entire track history